メインページ
METAR-TAF:

METAR-TAF

空港 :

ケベック・ジャン・ルサージ国際空港

ケベック・シティー, ケベック州, カナダ

緯度: 46-48N, 経度: 071-23W, 海抜: 70m

現時点の気象観測

当レポートは1時間15分前の03:00(UTC)に作成
の風 3kt
気温 -10°C
湿度 79%
気圧 1026 hPa
視程: 24.1km
高度19000ftの曇り

METAR: CYQB 160300Z 01003KT 15SM OVC190 M10/M13 A3031 RMK CI8 SLP273

時間: 23:15 (04:15 UTC)

予報

当レポートは4時間37分前の23:38(UTC)に作成
予報は16日の 00時(UTC)から 16日の 24時(UTC)まで有効
北東の風 8kt
視程: 10km
高度22000ftの曇り
16日の 0500時(UTC)から
東/北東の風 8kt
視程: 10km
高度16000ftの曇り
16日の 0900時(UTC)から
東/北東の風 10kt
視程: 10km
高度10000ftの曇り
小雪
16日の 09時(UTC)から 16日の 11時(UTC)まで一時的に
高度2500ftの曇り
小雪
16日の 1100時(UTC)から
東/北東の風 12kt
高度1500ftの曇り
小雪

TAF: CYQB 152338Z 1600/1624 05008KT P6SM OVC220 FM160500 07008KT P6SM OVC160 FM160900 06010KT P6SM -SN OVC100 TEMPO 1609/1611 11/2SM -SN OVC025 FM161100 06012KT 11/2SM -SN OVC015 RMK NXT FCST BY 160600Z

4,000以上の空港の気象観測と天気予報(METAR報とTAF報)

利用可能な観測所は地図上に黄色い丸と赤い丸で示す。

丸の上にカーソルを重ねると観測所名を参照できる。

次にクリックすると気象観測と天気予報を参照できる。

マップの切り替え:黒色「×」印の緑ボタンをクリックして拡大、「-」印の緑ボタンをクリックして縮小、緑色の三角印をクリックして隣りの地図に切り替え


METAR-TAF: